Time;durP1;ratioP1;P1;durP2;ratioP2;P2;SDS_P1;SDS_P2;PMS_P1;PMS_P2;Temp;Humidity;BMP_temperature;BMP_pressure;BME280_temperature;BME280_humidity;BME280_pressure;Samples;Min_cycle;Max_cycle;Signal;HPM_P1;HPM_P2
2023/08/24 00:00:41;;;;;;;14.60;13.40;;;;;;;19.45;100.00;94925.53;5077686;28;20028;-91
2023/08/24 00:03:08;;;;;;;13.77;12.73;;;;;;;19.57;100.00;94917.66;5078247;28;20115;-90
2023/08/24 00:05:38;;;;;;;13.57;12.38;;;;;;;19.66;100.00;94900.50;5081149;28;20044;-91
2023/08/24 00:08:04;;;;;;;13.70;12.70;;;;;;;19.66;100.00;94890.00;5081721;28;20102;-90
2023/08/24 00:10:30;;;;;;;15.02;13.65;;;;;;;19.62;100.00;94894.13;5082074;28;20725;-90
2023/08/24 00:12:55;;;;;;;13.95;12.95;;;;;;;19.54;100.00;94910.22;5080276;28;20097;-90
2023/08/24 00:15:21;;;;;;;14.23;13.07;;;;;;;19.45;100.00;94907.94;5081343;28;20035;-89
2023/08/24 00:17:46;;;;;;;14.65;13.50;;;;;;;19.51;100.00;94908.06;5062921;28;20028;-90
2023/08/24 00:20:12;;;;;;;15.57;14.25;;;;;;;19.42;100.00;94908.38;5082217;28;20398;-90
2023/08/24 00:22:39;;;;;;;14.23;13.25;;;;;;;19.26;100.00;94914.28;5080487;28;20453;-88
2023/08/24 00:25:05;;;;;;;14.32;13.27;;;;;;;19.05;100.00;94919.22;5081447;28;20115;-91
2023/08/24 00:27:31;;;;;;;14.82;13.82;;;;;;;19.18;100.00;94919.03;5061205;28;20537;-91
2023/08/24 00:29:56;;;;;;;15.40;14.13;;;;;;;19.27;100.00;94926.34;5077978;28;20313;-91
2023/08/24 00:32:22;;;;;;;14.55;13.48;;;;;;;19.23;100.00;94921.78;5081879;28;20028;-92
2023/08/24 00:34:48;;;;;;;16.35;14.95;;;;;;;19.25;100.00;94935.50;5080136;28;20070;-89
2023/08/24 00:37:13;;;;;;;16.20;14.75;;;;;;;19.11;100.00;94940.13;5081903;28;20370;-90
2023/08/24 00:39:39;;;;;;;15.43;14.23;;;;;;;19.25;100.00;94928.41;5081676;28;20030;-91
2023/08/24 00:42:05;;;;;;;14.68;13.52;;;;;;;19.21;100.00;94926.44;5076724;28;20540;-90
2023/08/24 00:44:31;;;;;;;15.25;13.90;;;;;;;19.09;100.00;94915.94;5070437;28;20028;-89
2023/08/24 00:46:58;;;;;;;15.57;14.48;;;;;;;18.98;100.00;94923.75;5080055;28;20028;-88
2023/08/24 00:49:23;;;;;;;15.98;14.75;;;;;;;18.99;100.00;94926.16;5073109;28;20598;-91
2023/08/24 00:51:49;;;;;;;15.77;14.48;;;;;;;19.18;100.00;94917.19;5074197;28;20107;-89
2023/08/24 00:54:15;;;;;;;16.13;14.80;;;;;;;19.22;100.00;94920.19;5081737;28;20058;-90
2023/08/24 00:56:41;;;;;;;16.60;14.90;;;;;;;19.14;100.00;94921.28;5074937;28;20027;-90
2023/08/24 00:59:06;;;;;;;15.82;14.32;;;;;;;19.22;100.00;94928.06;5068000;28;20016;-90
2023/08/24 01:01:32;;;;;;;15.18;14.00;;;;;;;19.01;100.00;94933.81;5073064;28;20035;-88
2023/08/24 01:03:57;;;;;;;15.90;14.52;;;;;;;18.95;100.00;94932.88;5080255;28;20073;-89
2023/08/24 01:06:22;;;;;;;16.88;15.35;;;;;;;18.94;100.00;94936.53;5083981;28;20031;-91
2023/08/24 01:08:48;;;;;;;15.85;14.55;;;;;;;18.93;100.00;94932.31;5066194;28;20062;-89
2023/08/24 01:11:26;;;;;;;15.80;14.32;;;;;;;18.97;100.00;94935.28;5084008;28;20539;-90
2023/08/24 01:13:57;;;;;;;15.77;14.50;;;;;;;18.79;100.00;94941.38;5100833;28;20036;-90
2023/08/24 01:16:28;;;;;;;15.63;14.18;;;;;;;18.61;100.00;94942.19;5101817;28;20032;-90
2023/08/24 01:18:59;;;;;;;16.90;15.48;;;;;;;18.47;100.00;94959.06;5082879;28;20028;-91
2023/08/24 01:21:26;;;;;;;17.98;16.50;;;;;;;18.53;100.00;94957.41;5084213;28;20036;-92
2023/08/24 01:24:10;;;;;;;16.02;14.55;;;;;;;18.69;100.00;94948.97;5084313;28;20490;-91
2023/08/24 01:26:36;;;;;;;16.83;15.40;;;;;;;18.70;100.00;94961.06;5082575;28;20028;-91
2023/08/24 01:29:04;;;;;;;16.83;15.43;;;;;;;18.88;100.00;94951.34;5102157;28;20020;-89
2023/08/24 01:31:29;;;;;;;17.60;16.20;;;;;;;18.72;100.00;94954.56;5082171;28;20050;-91
2023/08/24 01:33:55;;;;;;;16.50;15.20;;;;;;;18.63;100.00;94958.50;5084362;28;20482;-91
2023/08/24 01:36:21;;;;;;;16.20;14.93;;;;;;;18.46;100.00;94964.56;5052387;28;20498;-89
2023/08/24 01:38:58;;;;;;;17.77;16.45;;;;;;;18.42;100.00;94967.63;5099990;28;20032;-92
2023/08/24 01:41:26;;;;;;;15.55;14.57;;;;;;;18.71;100.00;94962.69;5083679;28;20046;-92
2023/08/24 01:43:53;;;;;;;17.38;15.70;;;;;;;18.73;100.00;94942.25;5062186;28;20405;-92
2023/08/24 01:46:21;;;;;;;18.05;16.45;;;;;;;18.68;100.00;94961.31;5093065;28;20281;-91
2023/08/24 01:48:47;;;;;;;16.90;15.30;;;;;;;18.62;100.00;94956.13;5082312;28;20077;-91
2023/08/24 01:51:13;;;;;;;16.48;15.18;;;;;;;18.61;100.00;94960.56;5063475;28;20450;-91
2023/08/24 01:53:39;;;;;;;16.90;15.18;;;;;;;18.67;100.00;94964.94;5078343;28;20028;-91
2023/08/24 01:56:16;;;;;;;18.02;15.57;;;;;;;18.67;100.00;94958.88;5083429;28;20031;-91
2023/08/24 01:58:41;;;;;;;17.38;16.00;;;;;;;18.46;100.00;94956.69;5083805;28;20097;-90
2023/08/24 02:01:08;;;;;;;17.65;15.95;;;;;;;18.32;100.00;94971.75;5100015;28;20024;-92
2023/08/24 02:03:33;;;;;;;18.05;16.60;;;;;;;18.25;100.00;94969.19;5062971;28;20481;-91
2023/08/24 02:05:59;;;;;;;18.33;16.48;;;;;;;18.19;100.00;94977.94;5093889;28;20047;-91
2023/08/24 02:08:25;;;;;;;17.83;16.23;;;;;;;18.19;100.00;94972.69;5070903;28;20605;-89
2023/08/24 02:10:50;;;;;;;17.95;16.33;;;;;;;18.22;100.00;94976.69;5101971;28;20055;-91
2023/08/24 02:13:15;;;;;;;18.30;16.63;;;;;;;18.22;100.00;94977.50;5087074;28;20028;-92
2023/08/24 02:15:41;;;;;;;18.80;16.35;;;;;;;18.20;100.00;94968.25;5105569;28;20035;-91
2023/08/24 02:18:07;;;;;;;17.15;15.77;;;;;;;18.36;100.00;94957.19;5103946;28;20085;-92
2023/08/24 02:20:38;;;;;;;17.77;15.82;;;;;;;18.36;100.00;94949.31;5096456;27;20034;-90
2023/08/24 02:23:04;;;;;;;18.65;16.58;;;;;;;18.31;100.00;94955.22;5089705;28;20370;-90
2023/08/24 02:25:30;;;;;;;16.52;15.20;;;;;;;18.24;100.00;94956.28;5105603;28;20085;-89
2023/08/24 02:27:55;;;;;;;17.80;15.88;;;;;;;18.11;100.00;94972.19;5103949;28;20039;-92
2023/08/24 02:30:21;;;;;;;19.40;16.00;;;;;;;18.15;100.00;94968.91;5069979;28;20031;-92
2023/08/24 02:32:46;;;;;;;17.77;16.10;;;;;;;18.19;100.00;94966.63;5105468;28;20030;-92
2023/08/24 02:35:12;;;;;;;16.13;14.98;;;;;;;18.25;100.00;94968.41;5086356;28;20023;-90
2023/08/24 02:37:37;;;;;;;22.52;17.38;;;;;;;18.23;100.00;94960.75;5067193;28;20017;-92
2023/08/24 02:40:03;;;;;;;16.70;15.20;;;;;;;18.25;100.00;94960.53;5078660;28;20106;-89
2023/08/24 02:42:33;;;;;;;18.00;16.35;;;;;;;18.28;100.00;94966.13;5074609;28;20029;-93
2023/08/24 02:44:58;;;;;;;18.50;17.00;;;;;;;18.18;100.00;94981.56;5100471;28;20065;-92
2023/08/24 02:47:24;;;;;;;16.75;15.48;;;;;;;18.20;100.00;94979.56;5073494;28;20368;-91
2023/08/24 02:49:49;;;;;;;17.40;16.00;;;;;;;18.22;100.00;94974.88;5069361;28;20027;-91
2023/08/24 02:52:14;;;;;;;17.48;16.08;;;;;;;18.15;100.00;94982.00;5066352;28;20099;-91
2023/08/24 02:54:40;;;;;;;17.15;15.75;;;;;;;18.08;100.00;95004.03;5094983;28;20031;-92
2023/08/24 02:57:05;;;;;;;17.23;15.63;;;;;;;18.27;100.00;94987.31;5085853;28;20020;-92
2023/08/24 02:59:31;;;;;;;17.48;15.73;;;;;;;18.28;100.00;94962.72;5096936;28;20032;-89
2023/08/24 03:01:56;;;;;;;17.15;15.77;;;;;;;18.20;100.00;94974.31;5079126;28;20093;-91
2023/08/24 03:04:22;;;;;;;16.38;15.07;;;;;;;18.15;100.00;94978.56;5081310;28;20581;-90
2023/08/24 03:06:47;;;;;;;17.48;16.00;;;;;;;18.15;100.00;94981.19;5069746;28;20054;-91
2023/08/24 03:09:12;;;;;;;17.30;15.65;;;;;;;18.03;100.00;94975.88;5083219;28;20031;-91
2023/08/24 03:11:38;;;;;;;17.55;15.85;;;;;;;17.87;100.00;94982.47;5082551;28;20488;-90
2023/08/24 03:14:04;;;;;;;18.77;17.17;;;;;;;17.69;100.00;95005.19;5083838;28;20028;-90
2023/08/24 03:16:29;;;;;;;17.85;16.55;;;;;;;17.70;100.00;95014.63;5083164;28;20020;-91
2023/08/24 03:18:54;;;;;;;17.60;16.05;;;;;;;17.82;100.00;95010.31;5064727;28;20500;-92
2023/08/24 03:21:20;;;;;;;16.40;15.27;;;;;;;17.97;100.00;94979.34;5083203;28;20028;-92
2023/08/24 03:23:45;;;;;;;18.65;17.20;;;;;;;17.92;100.00;94980.00;5082159;28;20020;-90
2023/08/24 03:26:11;;;;;;;17.35;15.75;;;;;;;18.02;100.00;94976.88;5083080;28;20032;-92
2023/08/24 03:28:36;;;;;;;17.38;15.95;;;;;;;18.06;100.00;94983.31;5076197;28;20024;-92
2023/08/24 03:31:02;;;;;;;17.08;15.63;;;;;;;18.01;100.00;94983.16;5075506;28;20423;-92
2023/08/24 03:33:28;;;;;;;18.65;16.83;;;;;;;17.78;100.00;94996.06;5080415;28;20317;-93
2023/08/24 03:35:53;;;;;;;25.35;17.58;;;;;;;17.63;100.00;95021.75;5072373;28;20031;-91
2023/08/24 03:38:19;;;;;;;19.13;17.02;;;;;;;17.45;100.00;95030.31;5082763;28;20108;-92
2023/08/24 03:40:44;;;;;;;19.48;15.70;;;;;;;17.72;100.00;95039.59;5057068;28;20051;-91
2023/08/24 03:43:10;;;;;;;17.40;16.10;;;;;;;17.44;100.00;95040.97;5077700;28;20326;-91
2023/08/24 03:45:36;;;;;;;41.13;18.70;;;;;;;17.31;100.00;95068.84;5064000;28;20056;-90
2023/08/24 03:48:01;;;;;;;19.05;17.23;;;;;;;17.44;100.00;95082.88;5084012;28;20073;-93
2023/08/24 03:50:27;;;;;;;19.75;18.05;;;;;;;17.50;100.00;95076.81;5079868;28;20509;-93
2023/08/24 03:52:54;;;;;;;20.05;17.20;;;;;;;17.59;100.00;95084.25;5051266;28;20029;-93
2023/08/24 03:55:20;;;;;;;18.65;17.05;;;;;;;17.70;100.00;95070.47;5078657;28;20039;-93
2023/08/24 03:57:45;;;;;;;19.42;17.55;;;;;;;17.48;100.00;95084.06;5080724;28;20505;-89
2023/08/24 04:00:11;;;;;;;19.45;17.73;;;;;;;17.30;100.00;95108.34;5065094;28;20070;-89
2023/08/24 04:02:43;;;;;;;19.48;17.88;;;;;;;17.33;100.00;95118.41;5077744;28;20538;-93
2023/08/24 04:05:09;;;;;;;18.50;16.85;;;;;;;17.64;100.00;95100.13;5083740;28;20477;-93
2023/08/24 04:07:36;;;;;;;30.85;17.73;;;;;;;17.75;100.00;95075.09;5082015;28;20024;-92
2023/08/24 04:10:04;;;;;;;18.52;16.83;;;;;;;17.88;100.00;95054.03;5082142;28;20066;-90
2023/08/24 04:12:30;;;;;;;18.63;16.92;;;;;;;17.92;100.00;95043.94;5081864;28;20031;-91
2023/08/24 04:14:57;;;;;;;17.42;15.95;;;;;;;17.88;100.00;95035.69;5081993;28;20059;-90
2023/08/24 04:17:23;;;;;;;17.83;16.05;;;;;;;17.92;100.00;95028.97;5061372;28;20024;-87
2023/08/24 04:19:48;;;;;;;16.88;15.55;;;;;;;17.92;100.00;95017.72;5076694;28;20093;-93
2023/08/24 04:22:14;;;;;;;17.10;15.48;;;;;;;18.09;100.00;95018.75;5082293;28;20032;-92
2023/08/24 04:24:39;;;;;;;16.10;14.80;;;;;;;18.28;100.00;95010.72;5079725;28;20024;-91
2023/08/24 04:27:04;;;;;;;17.92;15.80;;;;;;;18.13;100.00;95005.03;5081949;28;20459;-91
2023/08/24 04:29:30;;;;;;;17.50;15.98;;;;;;;18.13;100.00;95022.56;5080599;28;20032;-91
2023/08/24 04:31:55;;;;;;;16.73;15.43;;;;;;;18.34;100.00;95009.03;5081096;28;20077;-91
2023/08/24 04:34:21;;;;;;;15.88;14.50;;;;;;;18.64;100.00;94973.25;5081875;28;20028;-90
2023/08/24 04:36:46;;;;;;;15.43;14.10;;;;;;;18.83;100.00;94968.78;5080032;28;20085;-91
2023/08/24 04:39:11;;;;;;;15.30;14.07;;;;;;;19.37;100.00;94946.81;5082045;28;20028;-91
2023/08/24 04:41:37;;;;;;;16.65;15.02;;;;;;;19.33;100.00;94966.69;5066222;28;20051;-91
2023/08/24 04:44:02;;;;;;;15.38;14.18;;;;;;;19.23;100.00;94977.72;5081926;28;20032;-91
2023/08/24 04:46:28;;;;;;;17.15;15.68;;;;;;;19.23;100.00;94988.22;5069013;28;20028;-91
2023/08/24 04:48:53;;;;;;;16.63;15.43;;;;;;;19.22;100.00;94993.72;5080342;28;20111;-91
2023/08/24 04:51:18;;;;;;;25.13;15.57;;;;;;;19.24;100.00;94981.16;5082482;28;20036;-90
2023/08/24 04:53:44;;;;;;;16.10;14.73;;;;;;;19.42;100.00;94989.81;5061774;28;20021;-90
2023/08/24 04:56:09;;;;;;;16.95;15.60;;;;;;;19.01;100.00;95010.75;5081725;28;20028;-91
2023/08/24 04:58:35;;;;;;;17.25;15.82;;;;;;;19.15;100.00;95006.13;5062614;28;20020;-91
2023/08/24 05:01:00;;;;;;;15.60;14.25;;;;;;;19.38;100.00;94998.34;5082124;28;20449;-92
2023/08/24 05:03:26;;;;;;;14.10;13.10;;;;;;;19.90;100.00;94975.75;5063113;28;20564;-91
2023/08/24 05:05:51;;;;;;;16.00;14.32;;;;;;;20.23;100.00;94964.63;5081327;28;20100;-90
2023/08/24 05:08:17;;;;;;;15.05;13.82;;;;;;;20.34;100.00;94953.34;5081240;28;20032;-90
2023/08/24 05:10:43;;;;;;;14.98;13.57;;;;;;;20.51;100.00;94949.00;5080654;28;20097;-89
2023/08/24 05:13:09;;;;;;;13.63;12.60;;;;;;;20.58;100.00;94949.63;5076736;28;20418;-89
2023/08/24 05:15:34;;;;;;;13.88;12.55;;;;;;;21.50;100.00;94956.44;5071004;28;20153;-90
2023/08/24 05:18:00;;;;;;;17.30;12.52;;;;;;;22.17;100.00;94939.81;5080824;28;20031;-90
2023/08/24 05:20:26;;;;;;;13.13;12.07;;;;;;;21.67;100.00;94942.47;5079157;28;20023;-89
2023/08/24 05:22:54;;;;;;;13.70;12.70;;;;;;;21.58;100.00;94949.16;5049691;28;20040;-90
2023/08/24 05:25:20;;;;;;;14.13;13.13;;;;;;;21.81;100.00;94949.81;5065696;28;20043;-89
2023/08/24 05:27:45;;;;;;;13.68;12.50;;;;;;;21.74;100.00;94956.25;5068392;28;20282;-90
2023/08/24 05:30:11;;;;;;;14.45;13.00;;;;;;;21.85;100.00;94942.22;5077375;28;20024;-87
2023/08/24 05:32:38;;;;;;;12.77;11.50;;;;;;;21.89;100.00;94930.19;5081307;28;20028;-89
2023/08/24 05:35:05;;;;;;;13.43;12.35;;;;;;;21.97;100.00;94935.84;5063354;28;20509;-88
2023/08/24 05:37:30;;;;;;;13.27;12.07;;;;;;;21.99;100.00;94932.97;5079277;28;20036;-89
2023/08/24 05:39:55;;;;;;;14.07;12.98;;;;;;;22.04;100.00;94935.66;5081758;28;20028;-89
2023/08/24 05:42:21;;;;;;;13.88;12.70;;;;;;;22.14;100.00;94927.91;5080135;28;20101;-90
2023/08/24 05:44:46;;;;;;;15.75;12.48;;;;;;;22.24;100.00;94935.97;5080404;28;20428;-90
2023/08/24 05:47:12;;;;;;;15.13;12.57;;;;;;;22.38;100.00;94941.69;5047776;28;20134;-90
2023/08/24 05:49:37;;;;;;;13.57;12.40;;;;;;;22.37;100.00;94935.63;5081348;28;20024;-90
2023/08/24 05:52:03;;;;;;;12.65;11.75;;;;;;;22.39;100.00;94938.00;5079729;28;20039;-89
2023/08/24 05:54:29;;;;;;;12.60;11.48;;;;;;;22.38;100.00;94936.41;5080176;28;20149;-90
2023/08/24 05:56:54;;;;;;;12.55;11.65;;;;;;;22.34;100.00;94946.66;5060224;28;20030;-90
2023/08/24 05:59:20;;;;;;;13.68;12.35;;;;;;;22.19;100.00;94949.06;5072469;28;20131;-91
2023/08/24 06:01:45;;;;;;;13.35;12.15;;;;;;;22.21;100.00;94954.13;5073599;28;20496;-88
2023/08/24 06:04:10;;;;;;;13.73;12.45;;;;;;;22.19;100.00;94959.63;5062768;28;20028;-90
2023/08/24 06:06:37;;;;;;;14.15;13.02;;;;;;;21.96;100.00;94944.78;5084041;28;20048;-90
2023/08/24 06:09:06;;;;;;;13.65;12.38;;;;;;;22.30;100.00;94950.03;5082770;28;20519;-90
2023/08/24 06:11:35;;;;;;;14.05;12.93;;;;;;;22.54;100.00;94946.91;5082693;28;20051;-90
2023/08/24 06:14:01;;;;;;;14.43;12.98;;;;;;;22.77;100.00;94950.38;5101617;28;20040;-90
2023/08/24 06:16:27;;;;;;;13.50;12.27;;;;;;;23.15;100.00;94960.09;5081652;28;20526;-90
2023/08/24 06:18:52;;;;;;;13.60;12.45;;;;;;;23.25;100.00;94953.03;5101644;28;20035;-89
2023/08/24 06:21:18;;;;;;;13.90;12.73;;;;;;;23.29;100.00;94946.22;5081527;28;20486;-90
2023/08/24 06:23:44;;;;;;;15.05;13.48;;;;;;;23.38;100.00;94954.47;5083269;28;20024;-92
2023/08/24 06:26:10;;;;;;;15.05;12.85;;;;;;;23.46;100.00;94954.88;5082342;28;20028;-89
2023/08/24 06:28:35;;;;;;;15.77;12.30;;;;;;;23.50;100.00;94948.03;5083200;28;20035;-90
2023/08/24 06:31:01;;;;;;;14.57;13.18;;;;;;;23.60;100.00;94956.06;5082798;28;20134;-90
2023/08/24 06:33:36;;;;;;;14.65;13.35;;;;;;;23.96;100.00;94951.03;5064883;28;20097;-90
2023/08/24 06:36:02;;;;;;;13.15;11.93;;;;;;;24.01;100.00;94956.41;5083375;28;20118;-90
2023/08/24 06:38:28;;;;;;;13.75;12.65;;;;;;;24.09;100.00;94948.78;5085965;28;20067;-89
2023/08/24 06:40:54;;;;;;;14.20;13.10;;;;;;;24.46;100.00;94946.13;5102022;28;20036;-90
2023/08/24 06:43:19;;;;;;;14.98;13.32;;;;;;;24.65;100.00;94944.63;5067715;28;20168;-91
2023/08/24 06:45:45;;;;;;;15.68;13.85;;;;;;;25.00;100.00;94944.00;5101550;28;20035;-91
2023/08/24 06:48:10;;;;;;;14.25;13.10;;;;;;;25.55;100.00;94940.69;5083469;28;20116;-90
2023/08/24 06:50:36;;;;;;;15.68;13.13;;;;;;;26.05;100.00;94947.84;5086491;28;20023;-91
2023/08/24 06:53:03;;;;;;;13.82;12.57;;;;;;;26.44;99.24;94948.09;5083580;28;20023;-91
2023/08/24 06:55:29;;;;;;;13.20;12.25;;;;;;;27.04;85.89;94951.63;5099859;28;20062;-91
2023/08/24 06:57:54;;;;;;;12.60;11.55;;;;;;;27.44;84.19;94950.66;5076431;28;20117;-92
2023/08/24 07:00:20;;;;;;;13.18;12.05;;;;;;;30.43;74.43;94951.44;5080016;27;20129;-90
2023/08/24 07:02:46;;;;;;;14.07;11.00;;;;;;;29.10;74.06;94945.66;5096609;28;20172;-91
2023/08/24 07:05:12;;;;;;;12.52;11.63;;;;;;;29.72;72.05;94948.03;5103809;28;20047;-90
2023/08/24 07:07:38;;;;;;;12.20;10.98;;;;;;;29.78;69.14;94943.38;5069881;28;20034;-93
2023/08/24 07:10:04;;;;;;;11.93;10.90;;;;;;;31.91;60.91;94945.44;5104684;28;20074;-90
2023/08/24 07:12:29;;;;;;;10.98;10.27;;;;;;;30.89;62.55;94949.47;5103629;28;20036;-92
2023/08/24 07:14:54;;;;;;;11.50;10.50;;;;;;;30.08;67.62;94945.59;5072880;28;20028;-92
2023/08/24 07:17:20;;;;;;;11.25;10.38;;;;;;;30.79;67.22;94947.03;5065505;28;20498;-93
2023/08/24 07:19:45;;;;;;;10.43;9.73;;;;;;;33.71;56.03;94943.53;5083350;28;20036;-93
2023/08/24 07:22:11;;;;;;;10.55;9.85;;;;;;;31.96;58.73;94942.63;5085593;28;20092;-92
2023/08/24 07:24:36;;;;;;;11.18;10.15;;;;;;;29.63;70.00;94941.75;5072715;28;20111;-92
2023/08/24 07:27:05;;;;;;;11.60;10.60;;;;;;;28.85;72.21;94941.44;5072440;28;20016;-93
2023/08/24 07:29:31;;;;;;;12.48;11.45;;;;;;;27.90;77.64;94948.47;5103964;28;20042;-94
2023/08/24 07:31:56;;;;;;;12.38;11.52;;;;;;;27.80;79.18;94938.69;5105459;28;20019;-92
2023/08/24 07:34:22;;;;;;;13.77;12.43;;;;;;;28.05;76.79;94937.69;5085262;28;20089;-94
2023/08/24 07:36:49;;;;;;;12.27;11.23;;;;;;;27.84;80.42;94949.59;5086674;28;20039;-94
2023/08/24 07:39:15;;;;;;;13.75;12.38;;;;;;;27.94;80.25;94949.47;5085441;28;20106;-93
2023/08/24 07:41:41;;;;;;;14.05;12.77;;;;;;;27.97;80.57;94951.59;5086925;28;20572;-92
2023/08/24 07:44:07;;;;;;;13.85;12.60;;;;;;;27.68;79.75;94951.53;5103241;28;20118;-94
2023/08/24 07:46:32;;;;;;;13.38;12.15;;;;;;;27.93;79.49;94950.56;5073116;28;20099;-93
2023/08/24 07:48:58;;;;;;;13.13;12.13;;;;;;;28.99;76.41;94944.22;5063252;28;20503;-93
2023/08/24 07:51:23;;;;;;;15.18;13.70;;;;;;;28.68;77.05;94943.75;5059380;28;20031;-94
2023/08/24 07:53:50;;;;;;;18.20;14.32;;;;;;;27.97;77.88;94943.59;5104868;28;20034;-93
2023/08/24 07:56:16;;;;;;;15.70;14.40;;;;;;;27.68;80.90;94944.34;5103302;28;20020;-92
2023/08/24 07:58:41;;;;;;;15.43;14.25;;;;;;;27.58;82.61;94948.97;5055259;28;20043;-95
2023/08/24 08:01:06;;;;;;;15.05;13.63;;;;;;;27.43;83.85;94952.50;5102555;28;20027;-92
2023/08/24 08:03:32;;;;;;;15.73;14.23;;;;;;;27.25;82.69;94937.16;5104219;28;20460;-93
2023/08/24 08:05:58;;;;;;;15.48;14.23;;;;;;;27.32;84.58;94952.81;5085040;28;20059;-94
2023/08/24 08:08:24;;;;;;;16.13;14.85;;;;;;;27.14;83.86;94947.06;5104147;28;20451;-93
2023/08/24 08:10:57;;;;;;;16.80;13.77;;;;;;;27.14;85.71;94948.91;5068870;28;20031;-94
2023/08/24 08:13:23;;;;;;;15.10;13.95;;;;;;;27.02;84.63;94940.47;5096440;28;20032;-93
2023/08/24 08:15:48;;;;;;;15.50;14.10;;;;;;;27.12;83.18;94943.09;5060972;28;20039;-95
2023/08/24 08:18:13;;;;;;;15.07;13.88;;;;;;;27.00;84.20;94940.72;5102404;28;20031;-94
2023/08/24 08:20:39;;;;;;;14.90;13.70;;;;;;;27.26;84.92;94944.06;5085299;28;20031;-94
2023/08/24 08:23:05;;;;;;;15.23;13.88;;;;;;;27.15;83.09;94942.53;5068587;28;20118;-93
2023/08/24 08:25:30;;;;;;;15.32;13.95;;;;;;;27.05;83.33;94945.25;5056112;28;20111;-93
2023/08/24 08:27:56;;;;;;;16.45;15.05;;;;;;;26.28;83.94;94943.88;5072015;28;20051;-91
2023/08/24 08:30:21;;;;;;;16.90;14.18;;;;;;;26.58;86.52;94943.81;5084043;28;20448;-94
2023/08/24 08:32:47;;;;;;;15.30;14.25;;;;;;;27.17;84.78;94940.38;5068995;28;20540;-94
2023/08/24 08:35:12;;;;;;;15.18;13.77;;;;;;;27.18;83.48;94942.00;5067075;28;20027;-93
2023/08/24 08:37:38;;;;;;;14.95;13.57;;;;;;;27.03;85.52;94929.56;5085348;28;20030;-92
2023/08/24 08:40:05;;;;;;;15.30;13.93;;;;;;;27.30;85.87;94933.66;5069797;28;20458;-93
2023/08/24 08:42:32;;;;;;;15.60;14.33;;;;;;;27.24;83.75;94940.88;5085481;28;20471;-94
2023/08/24 08:44:59;;;;;;;15.77;14.30;;;;;;;27.27;83.16;94934.22;5102961;28;20046;-93
2023/08/24 08:47:25;;;;;;;14.90;13.70;;;;;;;27.43;83.48;94928.56;5084853;28;20384;-93
2023/08/24 08:49:51;;;;;;;15.02;13.93;;;;;;;27.45;80.61;94923.78;5084733;28;20114;-93
2023/08/24 08:52:16;;;;;;;15.40;14.07;;;;;;;27.69;82.90;94922.00;5098043;28;20340;-95
2023/08/24 08:54:42;;;;;;;15.25;13.23;;;;;;;27.70;81.20;94920.94;5085026;28;20088;-94
2023/08/24 08:57:07;;;;;;;15.00;13.20;;;;;;;27.45;81.27;94915.00;5101258;28;20564;-93
2023/08/24 08:59:33;;;;;;;14.45;13.18;;;;;;;27.85;79.29;94912.00;5085381;28;20393;-93
2023/08/24 09:02:03;;;;;;;13.35;12.10;;;;;;;28.42;78.87;94910.41;5083838;28;20699;-91
2023/08/24 09:04:32;;;;;;;14.05;12.60;;;;;;;28.61;80.64;94901.41;5102694;28;20039;-91
2023/08/24 09:06:58;;;;;;;14.55;13.60;;;;;;;28.12;78.85;94900.88;5067608;28;20035;-93
2023/08/24 09:09:25;;;;;;;12.80;11.65;;;;;;;28.76;77.91;94893.28;5083992;28;20452;-92
2023/08/24 09:11:50;;;;;;;13.70;12.63;;;;;;;28.23;77.13;94891.69;5074752;27;20439;-91
2023/08/24 09:14:16;;;;;;;13.85;12.30;;;;;;;28.92;75.00;94888.53;5076458;28;20032;-92
2023/08/24 09:16:42;;;;;;;13.48;12.10;;;;;;;29.79;73.29;94884.34;5101567;28;20030;-92
2023/08/24 09:19:11;;;;;;;12.40;11.60;;;;;;;29.97;71.98;94884.59;5090179;28;20093;-92
2023/08/24 09:21:38;;;;;;;12.63;11.45;;;;;;;30.22;69.96;94873.44;5081472;28;20041;-93
2023/08/24 09:24:04;;;;;;;12.23;11.07;;;;;;;30.38;71.36;94872.06;5092642;28;20028;-92
2023/08/24 09:26:42;;;;;;;11.88;10.60;;;;;;;30.26;68.62;94866.41;5062181;28;20520;-87
2023/08/24 09:29:15;;;;;;;11.75;10.77;;;;;;;30.54;66.69;94857.34;5085453;28;20104;-92
2023/08/24 09:31:43;;;;;;;10.95;10.02;;;;;;;30.95;62.72;94857.34;5066378;28;20096;-94
2023/08/24 09:34:09;;;;;;;11.05;10.00;;;;;;;31.27;63.04;94862.47;5085052;28;20459;-92
2023/08/24 09:36:35;;;;;;;10.98;10.10;;;;;;;31.19;62.37;94844.47;5082039;28;20226;-92
2023/08/24 09:39:05;;;;;;;10.25;9.48;;;;;;;30.86;62.96;94848.38;5070686;28;20042;-91
2023/08/24 09:41:59;;;;;;;11.80;10.52;;;;;;;31.41;60.88;94845.56;5084677;28;20030;-92
2023/08/24 09:44:27;;;;;;;11.27;10.27;;;;;;;31.76;61.12;94845.53;5069729;28;20024;-89
2023/08/24 09:46:52;;;;;;;10.95;9.98;;;;;;;31.59;59.66;94842.78;5116278;27;20118;-93
2023/08/24 09:49:19;;;;;;;11.23;10.48;;;;;;;31.56;58.06;94839.91;5083077;28;20019;-91
2023/08/24 09:51:44;;;;;;;11.18;10.45;;;;;;;32.17;57.20;94845.31;5084604;28;20154;-92
2023/08/24 09:54:11;;;;;;;11.38;10.52;;;;;;;31.83;56.33;94832.50;5083163;28;20504;-91
2023/08/24 09:56:41;;;;;;;10.95;10.15;;;;;;;31.15;57.66;94822.06;5082537;28;20050;-91
2023/08/24 09:59:17;;;;;;;11.77;10.73;;;;;;;31.19;58.30;94816.91;5083553;28;20422;-89
2023/08/24 10:01:46;;;;;;;11.27;10.45;;;;;;;30.68;59.31;94831.38;5082739;28;20460;-87
2023/08/24 10:04:12;;;;;;;;;;;;;;;31.32;58.40;94824.09;5080056;28;20027;-91
2023/08/24 10:06:39;;;;;;;11.95;11.15;;;;;;;32.48;59.65;94812.28;5065739;28;19915;-89
2023/08/24 10:09:07;;;;;;;12.35;11.32;;;;;;;32.91;54.73;94820.47;5083873;28;20540;-91
2023/08/24 10:11:37;;;;;;;12.18;11.15;;;;;;;32.93;56.01;94810.19;5083319;28;20055;-91
2023/08/24 10:14:08;;;;;;;12.93;11.60;;;;;;;33.06;55.82;94801.19;5062291;28;20036;-90
2023/08/24 10:16:36;;;;;;;11.07;10.27;;;;;;;33.69;55.79;94805.94;5100446;28;20516;-88
2023/08/24 10:19:02;;;;;;;12.30;11.25;;;;;;;33.67;54.25;94805.47;5081700;28;20038;-90
2023/08/24 10:21:28;;;;;;;10.68;9.77;;;;;;;33.44;53.86;94796.78;5066734;28;20047;-89
2023/08/24 10:23:56;;;;;;;11.75;10.73;;;;;;;33.56;52.58;94791.56;5081664;28;20032;-92
2023/08/24 10:26:23;;;;;;;10.60;9.80;;;;;;;33.71;54.20;94791.09;5083786;28;20036;-92
2023/08/24 10:28:50;;;;;;;10.60;9.80;;;;;;;33.32;50.57;94775.16;5082668;28;20038;-89
2023/08/24 10:31:15;;;;;;;10.77;9.68;;;;;;;32.93;47.99;94764.56;5081935;28;20098;-85
2023/08/24 10:33:41;;;;;;;11.40;10.00;;;;;;;32.82;48.79;94764.88;5087323;28;20607;-90
2023/08/24 10:36:06;;;;;;;11.35;10.25;;;;;;;33.55;47.29;94754.25;5068769;28;20528;-89
2023/08/24 10:38:36;;;;;;;11.68;10.43;;;;;;;33.07;47.30;94760.63;5083546;28;20043;-90
2023/08/24 10:41:06;;;;;;;10.95;10.05;;;;;;;32.99;48.69;94763.28;5075406;28;20527;-86
2023/08/24 10:43:38;;;;;;;11.77;10.95;;;;;;;33.39;49.83;94770.09;5087490;28;20016;-90
2023/08/24 10:46:16;;;;;;;14.15;11.30;;;;;;;33.44;46.87;94769.91;5085577;28;20042;-86
2023/08/24 10:48:41;;;;;;;12.32;11.25;;;;;;;33.20;47.47;94764.28;5085470;28;20104;-84
2023/08/24 10:51:21;;;;;;;11.90;11.00;;;;;;;33.42;48.92;94760.59;5104958;28;20023;-88
2023/08/24 10:53:59;;;;;;;12.60;11.50;;;;;;;33.23;46.92;94752.91;5085577;28;20037;-91
2023/08/24 10:56:40;;;;;;;13.38;12.23;;;;;;;32.80;50.46;94761.72;5076726;28;20122;-90
2023/08/24 10:59:16;;;;;;;13.65;12.18;;;;;;;32.72;52.37;94759.78;5064417;28;20028;-90
2023/08/24 11:01:43;;;;;;;12.80;11.80;;;;;;;32.52;54.77;94763.06;5061189;28;20468;-90
2023/08/24 11:04:10;;;;;;;13.13;11.95;;;;;;;32.42;52.41;94754.53;5086821;28;20057;-90
2023/08/24 11:06:54;;;;;;;13.48;12.15;;;;;;;32.16;53.13;94747.19;5050780;28;20039;-88
2023/08/24 11:09:20;;;;;;;13.27;12.25;;;;;;;32.05;55.26;94755.81;5080894;28;20572;-92